Alice Theresa — OXCZ2 — position and weather

sailwx.info

Track history (hours):
 
Tides and Currents Weather Stations Pressure Air Temp Water Temp Dewpoint Dewpoint Depression Visibility Wind Speed Wind Dir Waves Ship Positions

Alice Theresa

Last reported at 2018-Jan-11 22:40 UTC. Time now 2018-Jan-19 03:55 UTC.
Position N 35°58' W 005°59'.

Length 102 m; draft 7.3 m.

Type: Tanker. MMSI: 219148000.

Date/timePositionNaut miles runAvg speedWind from/ knotsBaromVisibWave heightAir tempDewpointWater temp
2018-Jan-11 22:40N 35°58' W 005°59'313.0
2018-Jan-11 22:26N 35°58' W 005°55'510.9
2018-Jan-11 22:00N 35°58' W 005°50'611.4
2018-Jan-11 21:30N 35°58' W 005°43'511.1
2018-Jan-11 21:00N 35°58' W 005°36'511.1
2018-Jan-11 20:30N 35°59' W 005°29'510.3
2018-Jan-11 20:00N 36°01' W 005°23'5 9.5
2018-Jan-11 19:30N 36°02' W 005°17'510.1
2018-Jan-11 19:00N 36°03' W 005°11'5 9.3
2018-Jan-11 18:30N 36°03' W 005°06'5 9.7
2018-Jan-11 17:59N 36°04' W 004°59'510.7
2018-Jan-11 17:29N 36°06' W 004°53'510.8
2018-Jan-11 17:00N 36°06' W 004°47'611.2
2018-Jan-11 16:29N 36°07' W 004°40'611.4
2018-Jan-11 16:00N 36°08' W 004°33'19410.6
2018-Jan-10 21:35N 37°24' W 000°49'112.4
2018-Jan-10 21:30N 37°24' W 000°48'712.3
2018-Jan-10 20:56N 37°29' W 000°42'612.1
2018-Jan-10 20:28N 37°32' W 000°36'611.9
2018-Jan-10 20:00N 37°37' W 000°31'611.9
2018-Jan-10 19:30N 37°42' W 000°27'1411.9
2018-Jan-10 18:18N 37°54' W 000°18'611.9
2018-Jan-10 17:49N 37°58' W 000°13'411.8
2018-Jan-10 17:27N 38°01' W 000°09'  
2018-Jan-05 07:19N 38°29' E 008°30'296 8.2
2018-Jan-03 19:00N 36°30' E 014°13'6 8.8
2018-Jan-03 18:19N 36°28' E 014°20'3 9.8
2018-Jan-03 18:00N 36°27' E 014°23'510.2
2018-Jan-03 17:30N 36°25' E 014°29'510.3
2018-Jan-03 17:00N 36°25' E 014°36'  
Track history (hours):
 
Tides and Currents Weather Stations Pressure Air Temp Water Temp Dewpoint Dewpoint Depression Visibility Wind Speed Wind Dir Waves Ship Positions

Alice Theresa

Last reported at 2018-Jan-11 22:40 UTC. Time now 2018-Jan-19 03:55 UTC.
Position N 35°58' W 005°59'.

Length 102 m; draft 7.3 m.

Type: Tanker. MMSI: 219148000.

Date/timePositionNaut miles runAvg speedWind from/ knotsBaromVisibWave heightAir tempDewpointWater temp
2018-Jan-11 22:40N 35°58' W 005°59'313.0
2018-Jan-11 22:26N 35°58' W 005°55'510.9
2018-Jan-11 22:00N 35°58' W 005°50'611.4
2018-Jan-11 21:30N 35°58' W 005°43'511.1
2018-Jan-11 21:00N 35°58' W 005°36'511.1
2018-Jan-11 20:30N 35°59' W 005°29'510.3
2018-Jan-11 20:00N 36°01' W 005°23'5 9.5
2018-Jan-11 19:30N 36°02' W 005°17'510.1
2018-Jan-11 19:00N 36°03' W 005°11'5 9.3
2018-Jan-11 18:30N 36°03' W 005°06'5 9.7
2018-Jan-11 17:59N 36°04' W 004°59'510.7
2018-Jan-11 17:29N 36°06' W 004°53'510.8
2018-Jan-11 17:00N 36°06' W 004°47'611.2
2018-Jan-11 16:29N 36°07' W 004°40'611.4
2018-Jan-11 16:00N 36°08' W 004°33'19410.6
2018-Jan-10 21:35N 37°24' W 000°49'112.4
2018-Jan-10 21:30N 37°24' W 000°48'712.3
2018-Jan-10 20:56N 37°29' W 000°42'612.1
2018-Jan-10 20:28N 37°32' W 000°36'611.9
2018-Jan-10 20:00N 37°37' W 000°31'611.9
2018-Jan-10 19:30N 37°42' W 000°27'1411.9
2018-Jan-10 18:18N 37°54' W 000°18'611.9
2018-Jan-10 17:49N 37°58' W 000°13'411.8
2018-Jan-10 17:27N 38°01' W 000°09'  
2018-Jan-05 07:19N 38°29' E 008°30'296 8.2
2018-Jan-03 19:00N 36°30' E 014°13'6 8.8
2018-Jan-03 18:19N 36°28' E 014°20'3 9.8
2018-Jan-03 18:00N 36°27' E 014°23'510.2
2018-Jan-03 17:30N 36°25' E 014°29'510.3
2018-Jan-03 17:00N 36°25' E 014°36'  

Dump ship's entire track history